Time;durP1;ratioP1;P1;durP2;ratioP2;P2;SDS_P1;SDS_P2;PMS_P1;PMS_P2;Temp;Humidity;BMP_temperature;BMP_pressure;BME280_temperature;BME280_humidity;BME280_pressure;Samples;Min_cycle;Max_cycle;Signal;HPM_P1;HPM_P2
2023/12/19 00:01:15;;;;;;;13.77;11.13;;;2.70;99.90;;;;;;5010810;28;20189;-86
2023/12/19 00:03:41;;;;;;;12.23;10.88;;;2.80;99.90;;;;;;5010546;28;20209;-86
2023/12/19 00:06:07;;;;;;;13.43;11.30;;;3.00;99.90;;;;;;5014624;28;20240;-86
2023/12/19 00:08:32;;;;;;;12.00;10.67;;;2.70;99.90;;;;;;5013547;28;20210;-86
2023/12/19 00:10:58;;;;;;;11.93;10.00;;;2.50;99.90;;;;;;5029517;28;20187;-84
2023/12/19 00:13:23;;;;;;;13.07;9.47;;;2.70;99.90;;;;;;5040248;28;20238;-86
2023/12/19 00:15:49;;;;;;;10.80;9.67;;;2.60;99.90;;;;;;5023605;28;20263;-86
2023/12/19 00:18:14;;;;;;;10.57;9.47;;;3.00;99.90;;;;;;5021273;28;20215;-86
2023/12/19 00:20:40;;;;;;;11.07;9.87;;;2.40;99.90;;;;;;5026645;28;20206;-86
2023/12/19 00:23:05;;;;;;;11.70;10.43;;;2.70;99.90;;;;;;5025848;28;20221;-86
2023/12/19 00:25:31;;;;;;;12.33;9.57;;;2.30;99.90;;;;;;5024997;28;20211;-84
2023/12/19 00:27:58;;;;;;;10.40;9.40;;;2.20;99.90;;;;;;5026531;28;20221;-86
2023/12/19 00:30:25;;;;;;;10.68;9.50;;;2.30;99.90;;;;;;5020016;28;20777;-86
2023/12/19 00:32:51;;;;;;;10.10;9.00;;;2.50;99.90;;;;;;5006630;28;20189;-84
2023/12/19 00:35:17;;;;;;;11.80;9.27;;;2.40;99.90;;;;;;5043379;28;20203;-86
2023/12/19 00:37:42;;;;;;;14.40;10.80;;;2.50;99.90;;;;;;5022571;28;20207;-86
2023/12/19 00:40:11;;;;;;;10.83;9.73;;;2.50;99.90;;;;;;5015706;28;20197;-86
2023/12/19 00:42:36;;;;;;;10.20;8.32;;;2.40;99.90;;;;;;5022330;28;20185;-84
2023/12/19 00:45:02;;;;;;;8.70;7.80;;;2.30;99.90;;;;;;5019026;28;20266;-84
2023/12/19 00:47:27;;;;;;;9.70;7.90;;;2.30;99.90;;;;;;5038409;28;21296;-85
2023/12/19 00:49:53;;;;;;;8.20;6.97;;;2.70;99.90;;;;;;5023296;28;20300;-85
2023/12/19 00:52:18;;;;;;;7.60;6.70;;;2.40;99.90;;;;;;5024387;28;20182;-85
2023/12/19 00:54:44;;;;;;;7.80;7.10;;;3.00;99.90;;;;;;5023053;28;20214;-85
2023/12/19 00:57:09;;;;;;;7.33;6.53;;;2.70;99.90;;;;;;5023937;28;20184;-85
2023/12/19 00:59:35;;;;;;;7.50;6.00;;;2.50;99.90;;;;;;5039183;28;20573;-85
2023/12/19 01:02:02;;;;;;;7.53;6.60;;;2.60;99.90;;;;;;5024598;28;20213;-85
2023/12/19 01:04:27;;;;;;;7.13;6.38;;;2.70;99.90;;;;;;5022687;28;20210;-85
2023/12/19 01:06:53;;;;;;;8.60;6.47;;;3.00;99.90;;;;;;5023778;28;20183;-85
2023/12/19 01:09:18;;;;;;;6.77;6.07;;;2.70;99.90;;;;;;5026861;28;20220;-85
2023/12/19 01:11:44;;;;;;;8.00;6.90;;;2.80;99.90;;;;;;5027532;28;20178;-85
2023/12/19 01:14:09;;;;;;;6.70;6.10;;;2.90;99.90;;;;;;5022818;28;20227;-85
2023/12/19 01:16:35;;;;;;;7.23;6.50;;;3.10;99.90;;;;;;5030133;28;20191;-84
2023/12/19 01:19:02;;;;;;;6.80;6.07;;;2.80;99.90;;;;;;5027664;28;20187;-85
2023/12/19 01:21:27;;;;;;;7.50;5.55;;;2.60;99.90;;;;;;5028639;28;20203;-85
2023/12/19 01:23:53;;;;;;;6.70;5.97;;;2.60;99.90;;;;;;5025436;28;20203;-84
2023/12/19 01:26:20;;;;;;;7.45;6.60;;;2.80;99.90;;;;;;5023182;28;20198;-84
2023/12/19 01:28:46;;;;;;;6.68;5.38;;;2.90;99.90;;;;;;5026784;28;20200;-85
2023/12/19 01:31:11;;;;;;;6.67;5.60;;;3.30;99.90;;;;;;5027828;28;20198;-85
2023/12/19 01:33:37;;;;;;;7.90;6.20;;;3.10;99.90;;;;;;5035489;28;20199;-84
2023/12/19 01:36:03;;;;;;;6.77;5.57;;;2.80;99.90;;;;;;5035753;28;20164;-85
2023/12/19 01:38:28;;;;;;;6.72;6.00;;;2.80;99.90;;;;;;5035352;28;20188;-85
2023/12/19 01:40:54;;;;;;;7.40;5.63;;;2.90;99.90;;;;;;5035160;28;20197;-85
2023/12/19 01:43:20;;;;;;;7.80;5.73;;;2.60;99.90;;;;;;5035415;28;20185;-86
2023/12/19 01:45:48;;;;;;;6.28;5.68;;;2.60;99.90;;;;;;5038214;28;20175;-85
2023/12/19 01:48:15;;;;;;;7.60;5.68;;;2.60;99.90;;;;;;5049695;28;20178;-85
2023/12/19 01:50:42;;;;;;;7.88;6.70;;;2.10;99.90;;;;;;5036883;28;20172;-85
2023/12/19 01:53:08;;;;;;;11.30;9.45;;;2.50;99.90;;;;;;5037632;28;20170;-85
2023/12/19 01:55:33;;;;;;;14.07;12.25;;;2.60;99.90;;;;;;5034740;28;20211;-85
2023/12/19 01:58:00;;;;;;;14.23;12.60;;;;;;;;;;5035312;28;20197;-85
2023/12/19 02:00:26;;;;;;;9.05;8.25;;;2.50;99.90;;;;;;5027662;28;20194;-85
2023/12/19 02:02:52;;;;;;;9.82;8.80;;;2.00;99.90;;;;;;5026130;28;20276;-85
2023/12/19 02:05:18;;;;;;;10.05;8.02;;;3.10;99.90;;;;;;5029552;28;20203;-85
2023/12/19 02:07:44;;;;;;;11.88;9.45;;;2.70;99.90;;;;;;5028243;28;20183;-85
2023/12/19 02:10:10;;;;;;;10.53;9.43;;;2.50;99.90;;;;;;5025834;28;20216;-85
2023/12/19 02:12:38;;;;;;;11.80;10.10;;;2.80;99.90;;;;;;5029130;28;20217;-85
2023/12/19 02:15:04;;;;;;;13.23;10.65;;;2.70;99.90;;;;;;5026746;28;20218;-85
2023/12/19 02:17:30;;;;;;;11.43;9.27;;;2.90;99.90;;;;;;5031080;28;20182;-85
2023/12/19 02:19:56;;;;;;;11.07;8.97;;;2.70;99.90;;;;;;5035297;28;20192;-85
2023/12/19 02:22:21;;;;;;;8.93;7.53;;;2.60;99.90;;;;;;5028858;28;20221;-85
2023/12/19 02:24:47;;;;;;;9.50;7.20;;;2.50;99.90;;;;;;5026812;28;20206;-85
2023/12/19 02:27:15;;;;;;;8.15;7.32;;;2.30;99.90;;;;;;5043841;28;20684;-85
2023/12/19 02:29:40;;;;;;;8.32;6.38;;;2.40;99.90;;;;;;5043675;28;20284;-85
2023/12/19 02:32:06;;;;;;;7.10;6.40;;;2.60;99.90;;;;;;5044312;28;20190;-85
2023/12/19 02:34:31;;;;;;;8.27;7.20;;;2.40;99.90;;;;;;5024143;28;20203;-85
2023/12/19 02:36:57;;;;;;;7.90;6.80;;;2.90;99.90;;;;;;5025394;28;20198;-85
2023/12/19 02:39:23;;;;;;;10.40;7.37;;;2.40;99.90;;;;;;5020452;28;20203;-85
2023/12/19 02:41:48;;;;;;;7.20;6.50;;;2.40;99.90;;;;;;5014208;28;20213;-85
2023/12/19 02:44:14;;;;;;;7.13;6.43;;;2.30;99.90;;;;;;5024308;28;20291;-85
2023/12/19 02:46:40;;;;;;;7.97;7.20;;;2.40;99.90;;;;;;4999701;28;20200;-85
2023/12/19 02:49:06;;;;;;;7.07;6.37;;;2.10;99.90;;;;;;5035361;28;20215;-85
2023/12/19 02:51:31;;;;;;;6.70;6.00;;;2.30;99.90;;;;;;5032023;28;20453;-85
2023/12/19 02:53:58;;;;;;;6.83;5.90;;;2.20;99.90;;;;;;5022555;28;20207;-85
2023/12/19 02:56:24;;;;;;;6.50;5.38;;;2.10;99.90;;;;;;5023038;28;20597;-85
2023/12/19 02:58:49;;;;;;;6.35;5.30;;;2.20;99.90;;;;;;5007535;28;20179;-85
2023/12/19 03:01:15;;;;;;;4.80;4.30;;;1.90;99.90;;;;;;5013339;28;20189;-85
2023/12/19 03:03:41;;;;;;;7.50;5.60;;;2.40;99.90;;;;;;5022286;28;20257;-86
2023/12/19 03:06:07;;;;;;;5.53;5.00;;;2.20;99.90;;;;;;5034370;28;20210;-85
2023/12/19 03:08:36;;;;;;;8.07;6.57;;;2.20;99.90;;;;;;5027120;28;20214;-85
2023/12/19 03:11:02;;;;;;;6.25;5.65;;;2.60;99.90;;;;;;5019908;28;20183;-85
2023/12/19 03:13:28;;;;;;;6.57;5.90;;;2.00;99.90;;;;;;5024298;28;20193;-85
2023/12/19 03:15:54;;;;;;;6.40;5.80;;;2.00;99.90;;;;;;5023497;28;20254;-85
2023/12/19 03:18:24;;;;;;;6.18;5.45;;;2.40;99.90;;;;;;5023352;28;20194;-85
2023/12/19 03:20:54;;;;;;;7.20;5.85;;;2.00;99.90;;;;;;5017841;28;20184;-85
2023/12/19 03:23:21;;;;;;;7.55;5.90;;;2.00;99.90;;;;;;5007565;28;20267;-85
2023/12/19 03:25:47;;;;;;;7.05;5.80;;;2.00;99.90;;;;;;5030326;28;20194;-85
2023/12/19 03:28:13;;;;;;;5.82;5.32;;;2.10;99.90;;;;;;5028871;28;20187;-85
2023/12/19 03:30:38;;;;;;;7.03;5.50;;;1.50;99.90;;;;;;5016464;28;20178;-85
2023/12/19 03:33:04;;;;;;;6.43;5.77;;;1.50;99.90;;;;;;5020507;28;20473;-85
2023/12/19 03:35:30;;;;;;;7.50;5.53;;;1.60;99.90;;;;;;5020805;28;20224;-85
2023/12/19 03:37:55;;;;;;;6.53;5.97;;;2.10;99.90;;;;;;5015547;28;20194;-85
2023/12/19 03:40:21;;;;;;;6.47;5.73;;;1.90;99.90;;;;;;5008697;28;20687;-85
2023/12/19 03:42:47;;;;;;;6.40;5.30;;;1.70;99.90;;;;;;5008892;28;20204;-85
2023/12/19 03:45:13;;;;;;;5.63;4.43;;;1.90;99.90;;;;;;5013596;28;20286;-85
2023/12/19 03:47:39;;;;;;;5.53;4.88;;;1.80;99.90;;;;;;5008345;28;20194;-85
2023/12/19 03:50:06;;;;;;;5.50;3.95;;;1.60;99.90;;;;;;5014539;28;20210;-85
2023/12/19 03:52:31;;;;;;;5.40;4.90;;;1.70;99.90;;;;;;5013001;28;20233;-85
2023/12/19 03:54:57;;;;;;;7.90;4.90;;;2.00;99.90;;;;;;5034726;28;20297;-85
2023/12/19 03:57:23;;;;;;;4.63;4.00;;;2.00;99.90;;;;;;5017967;28;20187;-85
2023/12/19 03:59:49;;;;;;;6.22;4.72;;;1.70;99.90;;;;;;5017020;28;20275;-85
2023/12/19 04:02:15;;;;;;;5.20;4.50;;;2.00;99.90;;;;;;5019955;28;20618;-85
2023/12/19 04:04:40;;;;;;;6.60;4.97;;;1.70;99.90;;;;;;5018357;28;20247;-85
2023/12/19 04:07:06;;;;;;;6.07;4.80;;;1.40;99.90;;;;;;5036036;28;20277;-85
2023/12/19 04:09:32;;;;;;;5.37;4.83;;;2.10;99.90;;;;;;5037081;28;20481;-85
2023/12/19 04:12:01;;;;;;;4.83;4.33;;;2.00;99.90;;;;;;5035759;28;20186;-85
2023/12/19 04:14:27;;;;;;;4.53;3.75;;;2.10;99.90;;;;;;5028235;28;20436;-85
2023/12/19 04:16:53;;;;;;;4.68;3.70;;;1.90;99.90;;;;;;5017689;28;20578;-85
2023/12/19 04:19:21;;;;;;;4.33;3.77;;;1.50;99.90;;;;;;5018599;28;20695;-84
2023/12/19 04:21:47;;;;;;;4.88;4.00;;;1.40;99.90;;;;;;5016686;28;20761;-85
2023/12/19 04:24:13;;;;;;;4.40;4.00;;;2.00;99.90;;;;;;5016551;28;20247;-85
2023/12/19 04:26:38;;;;;;;5.20;3.80;;;2.10;99.90;;;;;;5017676;28;20445;-85
2023/12/19 04:29:04;;;;;;;4.73;3.80;;;1.60;99.90;;;;;;5018645;28;20229;-85
2023/12/19 04:31:30;;;;;;;4.67;4.20;;;1.60;99.90;;;;;;5015666;28;20553;-85
2023/12/19 04:33:55;;;;;;;5.67;4.93;;;1.50;99.90;;;;;;5019136;28;20203;-85
2023/12/19 04:36:23;;;;;;;5.27;4.70;;;1.70;99.90;;;;;;5022402;28;20198;-85
2023/12/19 04:38:48;;;;;;;6.30;5.60;;;2.10;99.90;;;;;;5014867;28;20210;-85
2023/12/19 04:41:14;;;;;;;4.27;3.87;;;1.90;99.90;;;;;;5019075;28;20182;-85
2023/12/19 04:43:39;;;;;;;3.83;3.47;;;1.90;99.90;;;;;;5020238;28;20209;-85
2023/12/19 04:46:08;;;;;;;4.13;3.70;;;1.80;99.90;;;;;;5019139;28;20198;-85
2023/12/19 04:48:34;;;;;;;4.30;3.67;;;2.10;99.90;;;;;;5017825;28;20198;-84
2023/12/19 04:51:00;;;;;;;5.03;4.50;;;2.00;99.90;;;;;;5020184;28;20187;-85
2023/12/19 04:53:25;;;;;;;4.03;3.63;;;1.50;99.90;;;;;;5022295;28;20182;-85
2023/12/19 04:55:51;;;;;;;5.27;4.60;;;1.60;99.90;;;;;;5020432;28;20229;-85
2023/12/19 04:58:17;;;;;;;6.00;3.93;;;1.50;99.90;;;;;;5024077;28;20183;-85
2023/12/19 05:00:43;;;;;;;4.65;4.25;;;1.60;99.90;;;;;;5026067;28;20183;-85
2023/12/19 05:03:09;;;;;;;4.47;4.00;;;1.40;99.90;;;;;;5025986;28;20636;-85
2023/12/19 05:05:34;;;;;;;6.23;4.47;;;1.60;99.90;;;;;;5024957;28;20209;-85
2023/12/19 05:08:00;;;;;;;6.60;4.27;;;1.60;99.90;;;;;;5030054;28;20194;-85
2023/12/19 05:10:25;;;;;;;4.40;4.00;;;2.10;99.90;;;;;;5027113;28;20233;-85
2023/12/19 05:12:51;;;;;;;6.20;3.77;;;1.40;99.90;;;;;;5022655;28;20171;-85
2023/12/19 05:15:16;;;;;;;4.37;3.80;;;1.70;99.90;;;;;;5010973;28;20219;-85
2023/12/19 05:17:42;;;;;;;6.00;4.57;;;1.50;99.90;;;;;;5031383;28;20209;-85
2023/12/19 05:20:08;;;;;;;6.10;4.47;;;1.60;99.90;;;;;;5032826;28;20175;-85
2023/12/19 05:22:33;;;;;;;9.90;5.80;;;1.60;99.90;;;;;;5035164;28;20186;-85
2023/12/19 05:24:59;;;;;;;4.13;3.53;;;2.00;99.90;;;;;;5033296;28;20215;-85
2023/12/19 05:27:24;;;;;;;11.60;7.53;;;2.00;99.90;;;;;;5035735;28;20186;-85
2023/12/19 05:29:50;;;;;;;7.77;5.40;;;1.50;99.90;;;;;;5029829;28;20260;-85
2023/12/19 05:32:15;;;;;;;4.70;3.90;;;1.50;99.90;;;;;;5022454;28;20603;-85
2023/12/19 05:34:41;;;;;;;5.80;4.10;;;2.00;99.90;;;;;;5012071;28;20203;-85
2023/12/19 05:37:06;;;;;;;5.40;4.30;;;1.50;99.90;;;;;;5015578;28;20225;-85
2023/12/19 05:39:32;;;;;;;5.43;4.80;;;1.50;99.90;;;;;;5016178;28;20189;-85
2023/12/19 05:41:58;;;;;;;6.50;3.90;;;1.70;99.90;;;;;;5015104;28;20194;-84
2023/12/19 05:44:23;;;;;;;4.50;3.55;;;1.80;99.90;;;;;;5016669;28;20207;-83
2023/12/19 05:46:50;;;;;;;4.47;3.43;;;1.80;99.90;;;;;;5010654;28;20187;-84
2023/12/19 05:49:15;;;;;;;4.55;3.65;;;1.60;99.90;;;;;;5018097;28;20205;-85
2023/12/19 05:51:41;;;;;;;4.87;3.70;;;2.10;99.90;;;;;;4999414;28;20186;-85
2023/12/19 05:54:08;;;;;;;3.60;3.30;;;1.70;99.90;;;;;;5015758;28;20207;-84
2023/12/19 05:56:34;;;;;;;4.47;3.70;;;1.80;99.90;;;;;;5014898;28;20181;-84
2023/12/19 05:58:59;;;;;;;5.10;4.40;;;2.10;99.90;;;;;;5011301;28;20183;-84
2023/12/19 06:01:25;;;;;;;4.33;3.60;;;2.10;99.90;;;;;;5015181;28;20194;-84
2023/12/19 06:03:51;;;;;;;3.57;3.27;;;1.70;99.90;;;;;;5017625;28;20466;-84
2023/12/19 06:06:17;;;;;;;5.03;3.77;;;2.30;99.90;;;;;;5017857;28;20467;-84
2023/12/19 06:08:43;;;;;;;4.83;4.03;;;1.80;99.90;;;;;;5017063;28;20465;-84
2023/12/19 06:11:12;;;;;;;9.37;4.67;;;1.70;99.90;;;;;;5017693;28;20184;-83
2023/12/19 06:13:37;;;;;;;4.80;4.32;;;2.20;99.90;;;;;;5016529;28;20454;-85
2023/12/19 06:16:06;;;;;;;3.97;3.50;;;1.60;99.90;;;;;;5002068;28;20225;-84
2023/12/19 06:18:32;;;;;;;4.00;3.60;;;1.90;99.90;;;;;;5024926;28;20182;-84
2023/12/19 06:21:00;;;;;;;4.70;4.00;;;1.80;99.90;;;;;;5031741;28;20190;-84
2023/12/19 06:23:27;;;;;;;6.55;4.80;;;1.80;99.90;;;;;;5024077;28;20507;-84
2023/12/19 06:25:52;;;;;;;6.13;5.38;;;1.70;99.90;;;;;;5016441;28;20194;-84
2023/12/19 06:28:18;;;;;;;11.23;7.90;;;1.90;99.90;;;;;;5018941;28;20190;-83
2023/12/19 06:30:43;;;;;;;9.13;8.33;;;2.00;99.90;;;;;;5020559;28;20189;-84
2023/12/19 06:33:09;;;;;;;9.60;8.60;;;2.00;99.90;;;;;;5019109;28;20182;-84
2023/12/19 06:35:39;;;;;;;15.77;10.90;;;1.90;99.90;;;;;;5015535;28;20222;-84
2023/12/19 06:38:05;;;;;;;11.30;9.45;;;2.30;99.90;;;;;;5026596;28;20556;-84
2023/12/19 06:40:31;;;;;;;9.52;8.50;;;2.00;99.90;;;;;;5017574;28;20235;-84
2023/12/19 06:42:56;;;;;;;10.83;8.87;;;1.90;99.90;;;;;;5015495;28;20182;-84
2023/12/19 06:45:22;;;;;;;9.60;8.70;;;1.80;99.90;;;;;;5014706;28;20945;-84
2023/12/19 06:47:47;;;;;;;11.87;8.07;;;1.90;99.90;;;;;;5011411;28;20190;-84
2023/12/19 06:50:13;;;;;;;8.40;7.50;;;2.20;99.90;;;;;;5016386;28;20206;-83
2023/12/19 06:52:40;;;;;;;8.80;7.80;;;1.90;99.90;;;;;;5021205;28;20201;-84
2023/12/19 06:55:06;;;;;;;7.70;6.90;;;2.10;99.90;;;;;;5034366;28;20274;-84
2023/12/19 06:57:31;;;;;;;7.30;6.60;;;2.00;99.90;;;;;;5022350;28;20187;-84
2023/12/19 06:59:57;;;;;;;10.43;7.70;;;1.80;99.90;;;;;;5029427;28;21007;-84
2023/12/19 07:02:22;;;;;;;7.30;6.40;;;1.90;99.90;;;;;;5015132;28;20201;-84
2023/12/19 07:04:48;;;;;;;8.23;6.73;;;;;;;;;;5013282;28;20257;-83
2023/12/19 07:07:14;;;;;;;7.70;6.90;;;2.00;99.90;;;;;;5018514;28;20203;-83
2023/12/19 07:09:40;;;;;;;7.77;6.63;;;;;;;;;;5011792;28;20206;-84
2023/12/19 07:12:06;;;;;;;6.80;5.82;;;1.90;99.90;;;;;;5016041;28;20183;-84
2023/12/19 07:14:31;;;;;;;10.10;6.97;;;1.90;99.90;;;;;;5013059;28;20570;-84
2023/12/19 07:16:57;;;;;;;8.07;7.07;;;1.90;99.90;;;;;;5014066;28;20188;-84
2023/12/19 07:19:22;;;;;;;10.07;6.47;;;2.60;99.90;;;;;;5012377;28;20325;-85
2023/12/19 07:21:49;;;;;;;7.60;6.30;;;1.80;99.90;;;;;;5009052;28;20191;-84
2023/12/19 07:26:50;;;;;;;8.02;7.22;;;-0.10;99.90;;;;;;5475724;22;20227;-84
2023/12/19 07:29:30;;;;;;;9.80;7.43;;;1.80;99.90;;;;;;5007693;28;20219;-85
2023/12/19 07:31:58;;;;;;;9.88;7.72;;;;;;;;;;5006099;28;20642;-83
2023/12/19 07:34:23;;;;;;;10.88;6.97;;;1.90;99.90;;;;;;4996280;28;20210;-84
2023/12/19 07:36:49;;;;;;;9.90;7.50;;;;;;;;;;5003449;28;20180;-84
2023/12/19 07:39:15;;;;;;;8.57;7.40;;;;;;;;;;5003356;28;20183;-84
2023/12/19 07:41:42;;;;;;;8.07;6.50;;;;;;;;;;5002523;28;20439;-84
2023/12/19 07:44:13;;;;;;;9.35;7.38;;;1.90;99.90;;;;;;4998726;28;20838;-85
2023/12/19 07:46:43;;;;;;;11.00;7.75;;;;;;;;;;5000719;28;20199;-85
2023/12/19 07:49:11;;;;;;;9.38;7.40;;;2.60;99.90;;;;;;5016206;28;20232;-85
2023/12/19 07:51:37;;;;;;;8.88;7.97;;;1.20;99.90;;;;;;5018083;28;20183;-85
2023/12/19 07:54:03;;;;;;;8.60;7.70;;;2.20;99.90;;;;;;5017376;28;20219;-86
2023/12/19 07:56:28;;;;;;;11.20;9.20;;;2.10;99.90;;;;;;5014338;28;20996;-86
2023/12/19 07:58:54;;;;;;;10.10;9.03;;;1.60;99.90;;;;;;4998716;28;20571;-85
2023/12/19 08:01:20;;;;;;;11.83;9.93;;;2.60;99.90;;;;;;4983623;28;20191;-84
2023/12/19 08:03:46;;;;;;;12.40;10.40;;;2.40;99.90;;;;;;4999701;28;20982;-86
2023/12/19 08:06:12;;;;;;;10.75;9.43;;;2.40;99.90;;;;;;5016541;28;20597;-85
2023/12/19 08:08:40;;;;;;;12.07;10.77;;;2.60;99.90;;;;;;4994924;28;20306;-85
2023/12/19 08:11:06;;;;;;;11.02;9.60;;;2.60;99.90;;;;;;4997668;28;20552;-85
2023/12/19 08:13:34;;;;;;;10.40;9.30;;;2.80;99.90;;;;;;4998122;28;20175;-84
2023/12/19 08:15:59;;;;;;;13.10;10.65;;;2.60;99.90;;;;;;5006810;28;20203;-86
2023/12/19 08:18:25;;;;;;;12.23;10.90;;;2.80;99.90;;;;;;4997847;28;20203;-87
2023/12/19 08:20:50;;;;;;;10.87;9.77;;;2.80;99.90;;;;;;4998758;28;20192;-87
2023/12/19 08:23:16;;;;;;;11.80;10.60;;;;;;;;;;4998012;28;20191;-87
2023/12/19 08:25:43;;;;;;;11.03;9.93;;;2.70;99.90;;;;;;4999348;28;20689;-89
2023/12/19 08:28:09;;;;;;;11.98;10.38;;;;;;;;;;4997870;28;20460;-87
2023/12/19 08:30:35;;;;;;;12.50;9.95;;;3.00;99.90;;;;;;4997549;28;20289;-87
2023/12/19 08:33:02;;;;;;;10.80;9.37;;;2.80;99.90;;;;;;5013355;28;20187;-91
2023/12/19 08:35:29;;;;;;;11.60;10.43;;;2.90;99.90;;;;;;5004150;28;20207;-90
2023/12/19 08:37:55;;;;;;;13.77;10.27;;;3.20;99.90;;;;;;4994501;28;20631;-91
2023/12/19 08:40:23;;;;;;;12.90;10.77;;;2.70;99.90;;;;;;4995813;28;20184;-90
2023/12/19 08:42:49;;;;;;;11.98;9.93;;;4.40;99.90;;;;;;4997555;28;20185;-86
2023/12/19 08:45:23;;;;;;;11.70;10.50;;;2.80;99.90;;;;;;5006009;28;20207;-87
2023/12/19 08:47:50;;;;;;;12.32;10.57;;;2.90;99.90;;;;;;5016637;28;20194;-89
2023/12/19 08:50:15;;;;;;;12.40;11.20;;;2.80;99.90;;;;;;5007935;28;20210;-83
2023/12/19 08:52:42;;;;;;;12.17;10.23;;;2.80;99.90;;;;;;5009194;28;20256;-85
2023/12/19 08:55:10;;;;;;;13.75;10.80;;;3.20;99.90;;;;;;5008667;28;20211;-85
2023/12/19 08:57:40;;;;;;;12.45;10.80;;;2.80;99.90;;;;;;5003150;28;20634;-85
2023/12/19 09:00:06;;;;;;;13.82;11.95;;;3.80;99.90;;;;;;4992361;28;20187;-86
2023/12/19 09:02:32;;;;;;;14.98;12.30;;;;;;;;;;4996899;28;20176;-86
2023/12/19 09:04:58;;;;;;;12.20;10.77;;;;;;;;;;5000818;28;20258;-85
2023/12/19 09:07:24;;;;;;;14.68;11.77;;;3.00;99.90;;;;;;5018751;28;20183;-83
2023/12/19 09:09:54;;;;;;;21.63;10.97;;;1.50;99.90;;;;;;5008689;28;20195;-85
2023/12/19 09:12:20;;;;;;;12.73;10.48;;;;;;;;;;5002175;28;20190;-86
2023/12/19 09:15:10;;;;;;;15.68;11.60;;;3.10;99.90;;;;;;5003359;28;20293;-83
2023/12/19 09:18:36;;;;;;;;;;;;;;;;;;;;;
2023/12/19 09:26:59;;;;;;;14.70;11.60;;;3.90;99.90;;;;;;5977828;22;20693;-84
2023/12/19 09:29:43;;;;;;;12.43;11.23;;;5.70;99.90;;;;;;5018195;28;20361;-84
2023/12/19 09:32:09;;;;;;;11.73;8.77;;;5.40;99.90;;;;;;5018145;28;20416;-83
2023/12/19 09:38:17;;;;;;;13.25;10.32;;;6.00;99.90;;;;;;5016642;28;20468;-83
2023/12/19 09:40:43;;;;;;;13.95;10.98;;;6.20;99.90;;;;;;5014851;28;20201;-83
2023/12/19 09:59:43;;;;;;;15.43;11.30;;;6.50;99.90;;;;;;5015958;28;20245;-82
2023/12/19 10:02:19;;;;;;;11.25;9.43;;;6.00;99.90;;;;;;5012988;28;20206;-83
2023/12/19 10:08:42;;;;;;;12.68;10.27;;;5.30;99.90;;;;;;4973982;28;20239;-82
2023/12/19 10:11:08;;;;;;;13.85;11.82;;;5.10;99.90;;;;;;4957113;28;20188;-83
2023/12/19 10:13:38;;;;;;;12.43;11.03;;;5.10;99.90;;;;;;5003346;28;20209;-83
2023/12/19 10:19:55;;;;;;;13.50;11.55;;;4.60;99.90;;;;;;5023922;28;20641;-82
2023/12/19 10:42:13;;;;;;;13.55;10.75;;;5.40;99.90;;;;;;5020070;28;20181;-83
2023/12/19 10:46:28;;;;;;;;;;;;;;;;;;;;;
2023/12/19 10:52:09;;;;;;;13.20;10.90;;;4.30;99.90;;;;;;4890335;29;20203;-84
2023/12/19 10:57:27;;;;;;;13.68;11.05;;;4.30;99.90;;;;;;5465104;22;20241;-85
2023/12/19 11:05:55;;;;;;;13.55;11.45;;;4.30;99.90;;;;;;5732458;23;20236;-83
2023/12/19 11:08:22;;;;;;;14.15;11.35;;;5.10;99.90;;;;;;5053543;28;20235;-86
2023/12/19 11:10:58;;;;;;;16.15;11.57;;;3.40;99.90;;;;;;5040687;28;20228;-85
2023/12/19 11:16:17;;;;;;;14.15;12.57;;;4.50;99.90;;;;;;5581367;22;20243;-87
2023/12/19 11:19:08;;;;;;;15.07;11.95;;;5.10;99.90;;;;;;4999508;28;20174;-88
2023/12/19 11:22:13;;;;;;;15.25;11.65;;;4.20;99.90;;;;;;5005226;28;20185;-86
2023/12/19 11:31:33;;;;;;;16.05;12.75;;;4.80;99.90;;;;;;5025664;28;20270;-85
2023/12/19 11:36:33;;;;;;;15.27;11.95;;;;;;;;;;5074622;23;20230;-84
2023/12/19 11:39:24;;;;;;;15.90;11.98;;;5.00;99.90;;;;;;5038027;28;20197;-84
2023/12/19 11:41:50;;;;;;;14.80;10.90;;;5.50;99.90;;;;;;5036235;28;20234;-84
2023/12/19 11:44:36;;;;;;;14.17;11.57;;;5.80;99.90;;;;;;5036050;28;20203;-85
2023/12/19 11:47:21;;;;;;;13.88;11.02;;;5.90;99.90;;;;;;5022120;28;20236;-84
2023/12/19 11:49:47;;;;;;;14.18;11.15;;;5.10;99.90;;;;;;5033119;28;20234;-84
2023/12/19 11:52:33;;;;;;;16.97;12.67;;;5.60;99.90;;;;;;5014310;28;20186;-85
2023/12/19 11:55:00;;;;;;;15.85;12.25;;;6.00;99.90;;;;;;5018172;28;20548;-84
2023/12/19 11:57:33;;;;;;;13.73;11.45;;;5.70;99.90;;;;;;5021822;28;20201;-85
2023/12/19 12:00:00;;;;;;;14.18;11.32;;;5.40;99.90;;;;;;5018412;28;20339;-85
2023/12/19 12:02:34;;;;;;;16.30;12.15;;;5.10;99.90;;;;;;5035333;28;20267;-85
2023/12/19 12:05:10;;;;;;;15.52;12.10;;;5.80;99.90;;;;;;5022620;28;20527;-84
2023/12/19 12:07:55;;;;;;;13.85;11.90;;;5.80;99.90;;;;;;5026859;28;20191;-83
2023/12/19 12:10:22;;;;;;;13.80;11.75;;;6.30;99.90;;;;;;5018155;28;20362;-82
2023/12/19 12:12:53;;;;;;;13.60;12.07;;;6.30;99.90;;;;;;5001858;28;20187;-82
2023/12/19 12:15:24;;;;;;;13.98;11.27;;;6.50;99.90;;;;;;5015243;28;20277;-83
2023/12/19 12:17:50;;;;;;;11.55;10.38;;;6.50;99.90;;;;;;5044406;28;20275;-82
2023/12/19 12:20:26;;;;;;;14.40;11.50;;;6.50;99.90;;;;;;5012537;28;20274;-83
2023/12/19 12:22:55;;;;;;;16.33;11.57;;;6.00;99.90;;;;;;5018593;28;20200;-83
2023/12/19 12:25:22;;;;;;;12.57;11.27;;;6.40;99.90;;;;;;5014755;28;20298;-83
2023/12/19 12:27:48;;;;;;;14.45;12.25;;;6.00;99.90;;;;;;5018844;28;20251;-83
2023/12/19 12:30:14;;;;;;;13.67;12.07;;;5.70;99.90;;;;;;5021511;28;20226;-82
2023/12/19 12:32:41;;;;;;;14.30;12.00;;;6.10;99.90;;;;;;5022589;28;20458;-82
2023/12/19 12:35:35;;;;;;;14.93;11.65;;;5.80;99.90;;;;;;5008360;28;20666;-85
2023/12/19 12:38:10;;;;;;;12.25;10.80;;;5.80;99.90;;;;;;5018525;28;20191;-84
2023/12/19 12:40:36;;;;;;;13.88;12.32;;;5.70;99.90;;;;;;5014491;28;20861;-84
2023/12/19 12:43:38;;;;;;;15.33;11.70;;;5.50;99.90;;;;;;5027751;28;20200;-85
2023/12/19 12:46:11;;;;;;;17.63;13.70;;;5.30;99.90;;;;;;5031680;28;20427;-86
2023/12/19 12:49:01;;;;;;;15.23;12.52;;;5.50;99.90;;;;;;5017731;28;20191;-86
2023/12/19 12:51:28;;;;;;;16.77;14.65;;;5.40;99.90;;;;;;5018746;28;20214;-84
2023/12/19 12:53:58;;;;;;;13.25;11.85;;;5.40;99.90;;;;;;5031749;28;20221;-84
2023/12/19 12:56:34;;;;;;;15.55;13.07;;;5.40;99.90;;;;;;5027545;28;20213;-84
2023/12/19 12:59:08;;;;;;;14.15;11.60;;;5.40;99.90;;;;;;5022478;28;20678;-84
2023/12/19 13:01:35;;;;;;;13.90;12.15;;;5.70;99.90;;;;;;5021656;28;20545;-84
2023/12/19 13:04:02;;;;;;;15.95;12.02;;;5.70;99.90;;;;;;5015154;28;20206;-83
2023/12/19 13:06:29;;;;;;;12.80;10.77;;;5.70;99.90;;;;;;5051258;28;20289;-83
2023/12/19 13:08:54;;;;;;;17.95;12.88;;;5.80;99.90;;;;;;5029608;28;20203;-83
2023/12/19 13:11:21;;;;;;;15.43;12.60;;;6.80;99.90;;;;;;5029890;28;20230;-83
2023/12/19 13:13:46;;;;;;;12.65;11.35;;;5.40;99.90;;;;;;5029380;28;20206;-83
2023/12/19 13:16:12;;;;;;;14.77;11.57;;;5.60;99.90;;;;;;5029048;28;20193;-83
2023/12/19 13:18:38;;;;;;;12.37;11.03;;;5.90;99.90;;;;;;5030029;28;20183;-83
2023/12/19 13:21:03;;;;;;;14.80;11.73;;;5.40;99.90;;;;;;5024941;28;20535;-84
2023/12/19 13:23:29;;;;;;;15.27;12.93;;;5.20;99.90;;;;;;5019529;28;20198;-84
2023/12/19 13:25:56;;;;;;;13.60;10.80;;;5.40;99.90;;;;;;5010678;28;20369;-83
2023/12/19 13:28:22;;;;;;;12.80;10.98;;;5.40;99.90;;;;;;5008781;28;20698;-84
2023/12/19 13:30:56;;;;;;;13.80;11.63;;;5.30;99.90;;;;;;5010930;28;20223;-87
2023/12/19 13:38:25;;;;;;;10.93;9.75;;;;;;;;;;5481414;22;20271;-85
2023/12/19 13:40:51;;;;;;;12.85;10.50;;;5.20;99.90;;;;;;5017317;28;20201;-85
2023/12/19 13:45:55;;;;;;;16.80;10.30;;;5.30;99.90;;;;;;5221507;22;20234;-86
2023/12/19 13:48:42;;;;;;;13.20;10.20;;;5.50;99.90;;;;;;5022177;28;20199;-86
2023/12/19 13:51:15;;;;;;;13.00;10.70;;;5.70;99.90;;;;;;5016327;28;20193;-87
2023/12/19 13:53:41;;;;;;;12.85;10.07;;;5.30;99.90;;;;;;5028235;28;20766;-86
2023/12/19 13:59:41;;;;;;;11.60;10.35;;;5.80;99.90;;;;;;5011347;28;20761;-83
2023/12/19 14:02:17;;;;;;;11.18;9.10;;;5.70;99.90;;;;;;5008399;28;20186;-84
2023/12/19 14:04:49;;;;;;;12.10;9.60;;;4.70;99.90;;;;;;4996121;28;20199;-85
2023/12/19 14:07:19;;;;;;;13.23;11.35;;;6.40;99.90;;;;;;4994782;28;20438;-85
2023/12/19 14:09:45;;;;;;;11.30;10.10;;;5.60;99.90;;;;;;4997074;28;20221;-85
2023/12/19 14:12:11;;;;;;;13.73;9.40;;;5.40;99.90;;;;;;5000987;28;20179;-85
2023/12/19 14:14:37;;;;;;;12.83;10.60;;;;;;;;;;4994273;28;20477;-85
2023/12/19 14:17:04;;;;;;;11.15;9.45;;;5.20;99.90;;;;;;5014630;28;20193;-85
2023/12/19 14:19:32;;;;;;;10.65;9.30;;;;;;;;;;4998928;28;20541;-85
2023/12/19 14:22:09;;;;;;;9.75;8.75;;;5.10;99.90;;;;;;4993107;28;20187;-85
2023/12/19 14:24:34;;;;;;;10.50;8.70;;;7.60;99.90;;;;;;4999634;28;20219;-85
2023/12/19 14:27:00;;;;;;;11.70;9.47;;;;;;;;;;4993370;28;20188;-85
2023/12/19 14:32:49;;;;;;;9.48;8.35;;;6.00;99.90;;;;;;5018394;28;20235;-84
2023/12/19 14:35:20;;;;;;;14.37;9.17;;;6.00;99.90;;;;;;5011257;28;20253;-84